sensor_id;sensor_type;location;lat;lon;timestamp;P1;durP1;ratioP1;P2;durP2;ratioP2
5460;SDS011;2753;49.196;8.286;2023-06-22T00:01:28;6.83;;;5.30;;
5460;SDS011;2753;49.196;8.286;2023-06-22T00:03:54;10.10;;;5.70;;
5460;SDS011;2753;49.196;8.286;2023-06-22T00:06:20;7.23;;;5.73;;
5460;SDS011;2753;49.196;8.286;2023-06-22T00:08:45;7.77;;;6.00;;
5460;SDS011;2753;49.196;8.286;2023-06-22T00:11:11;6.67;;;5.97;;
5460;SDS011;2753;49.196;8.286;2023-06-22T00:13:37;6.80;;;6.10;;
5460;SDS011;2753;49.196;8.286;2023-06-22T00:16:03;7.40;;;6.17;;
5460;SDS011;2753;49.196;8.286;2023-06-22T00:18:29;7.27;;;5.90;;
5460;SDS011;2753;49.196;8.286;2023-06-22T00:20:55;9.23;;;5.70;;
5460;SDS011;2753;49.196;8.286;2023-06-22T00:23:24;9.37;;;5.83;;
5460;SDS011;2753;49.196;8.286;2023-06-22T00:25:50;7.63;;;6.20;;
5460;SDS011;2753;49.196;8.286;2023-06-22T00:28:16;9.47;;;6.70;;
5460;SDS011;2753;49.196;8.286;2023-06-22T00:30:41;8.73;;;6.00;;
5460;SDS011;2753;49.196;8.286;2023-06-22T00:33:07;10.17;;;6.20;;
5460;SDS011;2753;49.196;8.286;2023-06-22T00:35:33;19.43;;;6.20;;
5460;SDS011;2753;49.196;8.286;2023-06-22T00:37:59;11.30;;;6.20;;
5460;SDS011;2753;49.196;8.286;2023-06-22T00:40:29;10.37;;;6.70;;
5460;SDS011;2753;49.196;8.286;2023-06-22T00:42:56;11.90;;;6.20;;
5460;SDS011;2753;49.196;8.286;2023-06-22T00:45:23;10.33;;;6.37;;
5460;SDS011;2753;49.196;8.286;2023-06-22T00:47:50;10.63;;;7.03;;
5460;SDS011;2753;49.196;8.286;2023-06-22T00:50:18;9.80;;;6.40;;
5460;SDS011;2753;49.196;8.286;2023-06-22T00:52:49;7.40;;;6.70;;
5460;SDS011;2753;49.196;8.286;2023-06-22T00:55:18;14.50;;;7.37;;
5460;SDS011;2753;49.196;8.286;2023-06-22T00:57:47;11.63;;;7.07;;
5460;SDS011;2753;49.196;8.286;2023-06-22T01:00:13;8.43;;;7.27;;
5460;SDS011;2753;49.196;8.286;2023-06-22T01:02:44;12.93;;;7.07;;
5460;SDS011;2753;49.196;8.286;2023-06-22T01:05:11;9.23;;;7.37;;
5460;SDS011;2753;49.196;8.286;2023-06-22T01:12:52;7.53;;;6.63;;
5460;SDS011;2753;49.196;8.286;2023-06-22T01:15:25;11.00;;;7.97;;
5460;SDS011;2753;49.196;8.286;2023-06-22T01:17:56;9.50;;;6.53;;
5460;SDS011;2753;49.196;8.286;2023-06-22T01:20:23;9.27;;;7.10;;
5460;SDS011;2753;49.196;8.286;2023-06-22T01:25:26;9.07;;;7.63;;
5460;SDS011;2753;49.196;8.286;2023-06-22T01:30:40;10.77;;;8.00;;
5460;SDS011;2753;49.196;8.286;2023-06-22T01:33:07;8.40;;;6.97;;
5460;SDS011;2753;49.196;8.286;2023-06-22T01:35:36;11.67;;;6.80;;
5460;SDS011;2753;49.196;8.286;2023-06-22T01:38:03;10.77;;;7.53;;
5460;SDS011;2753;49.196;8.286;2023-06-22T01:40:30;12.40;;;7.27;;
5460;SDS011;2753;49.196;8.286;2023-06-22T01:42:59;13.90;;;7.33;;
5460;SDS011;2753;49.196;8.286;2023-06-22T01:45:26;10.30;;;7.83;;
5460;SDS011;2753;49.196;8.286;2023-06-22T01:47:52;8.73;;;7.77;;
5460;SDS011;2753;49.196;8.286;2023-06-22T01:50:19;16.87;;;8.13;;
5460;SDS011;2753;49.196;8.286;2023-06-22T01:52:45;9.10;;;7.80;;
5460;SDS011;2753;49.196;8.286;2023-06-22T01:55:11;10.27;;;8.03;;
5460;SDS011;2753;49.196;8.286;2023-06-22T01:57:36;9.77;;;8.70;;
5460;SDS011;2753;49.196;8.286;2023-06-22T02:00:04;10.73;;;7.70;;
5460;SDS011;2753;49.196;8.286;2023-06-22T02:02:32;11.13;;;7.87;;
5460;SDS011;2753;49.196;8.286;2023-06-22T02:05:05;11.53;;;8.10;;
5460;SDS011;2753;49.196;8.286;2023-06-22T02:07:38;11.10;;;8.13;;
5460;SDS011;2753;49.196;8.286;2023-06-22T02:10:15;10.20;;;7.90;;
5460;SDS011;2753;49.196;8.286;2023-06-22T02:12:45;12.73;;;8.97;;
5460;SDS011;2753;49.196;8.286;2023-06-22T02:15:12;11.17;;;8.20;;
5460;SDS011;2753;49.196;8.286;2023-06-22T02:17:39;15.87;;;8.80;;
5460;SDS011;2753;49.196;8.286;2023-06-22T02:20:13;11.63;;;8.73;;
5460;SDS011;2753;49.196;8.286;2023-06-22T02:22:39;11.40;;;8.33;;
5460;SDS011;2753;49.196;8.286;2023-06-22T02:25:05;13.23;;;8.30;;
5460;SDS011;2753;49.196;8.286;2023-06-22T02:27:31;11.47;;;9.20;;
5460;SDS011;2753;49.196;8.286;2023-06-22T02:29:57;11.57;;;8.77;;
5460;SDS011;2753;49.196;8.286;2023-06-22T02:32:22;16.33;;;9.20;;
5460;SDS011;2753;49.196;8.286;2023-06-22T02:34:48;14.40;;;8.47;;
5460;SDS011;2753;49.196;8.286;2023-06-22T02:37:14;14.80;;;9.43;;
5460;SDS011;2753;49.196;8.286;2023-06-22T02:39:40;14.03;;;8.70;;
5460;SDS011;2753;49.196;8.286;2023-06-22T02:42:06;15.07;;;8.73;;
5460;SDS011;2753;49.196;8.286;2023-06-22T02:44:31;18.53;;;9.37;;
5460;SDS011;2753;49.196;8.286;2023-06-22T02:46:58;13.90;;;8.67;;
5460;SDS011;2753;49.196;8.286;2023-06-22T02:49:24;13.10;;;8.27;;
5460;SDS011;2753;49.196;8.286;2023-06-22T02:51:49;15.13;;;9.30;;
5460;SDS011;2753;49.196;8.286;2023-06-22T02:54:15;10.20;;;8.53;;
5460;SDS011;2753;49.196;8.286;2023-06-22T02:56:41;16.03;;;8.30;;
5460;SDS011;2753;49.196;8.286;2023-06-22T02:59:11;12.80;;;8.13;;
5460;SDS011;2753;49.196;8.286;2023-06-22T03:01:37;12.60;;;9.07;;
5460;SDS011;2753;49.196;8.286;2023-06-22T03:04:05;13.93;;;9.40;;
5460;SDS011;2753;49.196;8.286;2023-06-22T03:06:32;19.93;;;9.50;;
5460;SDS011;2753;49.196;8.286;2023-06-22T03:09:01;16.53;;;10.00;;
5460;SDS011;2753;49.196;8.286;2023-06-22T03:11:29;19.60;;;10.60;;
5460;SDS011;2753;49.196;8.286;2023-06-22T03:13:58;13.00;;;9.90;;
5460;SDS011;2753;49.196;8.286;2023-06-22T03:16:25;12.93;;;9.03;;
5460;SDS011;2753;49.196;8.286;2023-06-22T03:18:51;29.33;;;10.87;;
5460;SDS011;2753;49.196;8.286;2023-06-22T03:21:18;13.83;;;10.03;;
5460;SDS011;2753;49.196;8.286;2023-06-22T03:23:44;12.93;;;10.23;;
5460;SDS011;2753;49.196;8.286;2023-06-22T03:26:10;15.03;;;12.03;;
5460;SDS011;2753;49.196;8.286;2023-06-22T03:28:36;13.97;;;11.20;;
5460;SDS011;2753;49.196;8.286;2023-06-22T03:31:02;15.10;;;11.27;;
5460;SDS011;2753;49.196;8.286;2023-06-22T03:33:29;17.93;;;12.60;;
5460;SDS011;2753;49.196;8.286;2023-06-22T03:35:55;24.43;;;13.80;;
5460;SDS011;2753;49.196;8.286;2023-06-22T03:38:21;24.73;;;14.53;;
5460;SDS011;2753;49.196;8.286;2023-06-22T03:40:46;21.00;;;13.57;;
5460;SDS011;2753;49.196;8.286;2023-06-22T03:43:12;25.77;;;13.50;;
5460;SDS011;2753;49.196;8.286;2023-06-22T03:45:38;21.17;;;15.60;;
5460;SDS011;2753;49.196;8.286;2023-06-22T03:48:05;20.40;;;14.47;;
5460;SDS011;2753;49.196;8.286;2023-06-22T03:50:30;20.60;;;15.30;;
5460;SDS011;2753;49.196;8.286;2023-06-22T03:52:56;20.10;;;14.70;;
5460;SDS011;2753;49.196;8.286;2023-06-22T03:55:22;21.77;;;14.00;;
5460;SDS011;2753;49.196;8.286;2023-06-22T03:57:47;21.57;;;14.07;;
5460;SDS011;2753;49.196;8.286;2023-06-22T04:00:13;20.17;;;14.43;;
5460;SDS011;2753;49.196;8.286;2023-06-22T04:02:41;19.97;;;13.80;;
5460;SDS011;2753;49.196;8.286;2023-06-22T04:05:08;21.50;;;14.07;;
5460;SDS011;2753;49.196;8.286;2023-06-22T04:07:34;18.37;;;14.70;;
5460;SDS011;2753;49.196;8.286;2023-06-22T04:10:02;22.00;;;14.97;;
5460;SDS011;2753;49.196;8.286;2023-06-22T04:12:29;24.93;;;15.30;;
5460;SDS011;2753;49.196;8.286;2023-06-22T04:14:54;18.23;;;13.53;;
5460;SDS011;2753;49.196;8.286;2023-06-22T04:17:20;21.03;;;14.10;;
5460;SDS011;2753;49.196;8.286;2023-06-22T04:19:46;19.20;;;13.90;;
5460;SDS011;2753;49.196;8.286;2023-06-22T04:22:12;24.97;;;14.60;;
5460;SDS011;2753;49.196;8.286;2023-06-22T04:24:37;17.20;;;14.50;;
5460;SDS011;2753;49.196;8.286;2023-06-22T04:27:03;17.67;;;13.17;;
5460;SDS011;2753;49.196;8.286;2023-06-22T04:29:29;19.53;;;14.20;;
5460;SDS011;2753;49.196;8.286;2023-06-22T04:31:58;20.80;;;16.37;;
5460;SDS011;2753;49.196;8.286;2023-06-22T04:34:28;20.30;;;15.10;;
5460;SDS011;2753;49.196;8.286;2023-06-22T04:36:54;23.93;;;14.60;;
5460;SDS011;2753;49.196;8.286;2023-06-22T04:39:20;17.80;;;14.40;;
5460;SDS011;2753;49.196;8.286;2023-06-22T04:41:46;18.80;;;15.10;;
5460;SDS011;2753;49.196;8.286;2023-06-22T04:44:16;23.10;;;15.50;;
5460;SDS011;2753;49.196;8.286;2023-06-22T04:46:52;22.60;;;14.40;;
5460;SDS011;2753;49.196;8.286;2023-06-22T04:49:20;20.80;;;14.87;;
5460;SDS011;2753;49.196;8.286;2023-06-22T04:51:46;17.03;;;13.90;;
5460;SDS011;2753;49.196;8.286;2023-06-22T04:54:12;18.50;;;13.83;;
5460;SDS011;2753;49.196;8.286;2023-06-22T04:56:38;24.53;;;16.47;;
5460;SDS011;2753;49.196;8.286;2023-06-22T04:59:05;22.50;;;15.70;;
5460;SDS011;2753;49.196;8.286;2023-06-22T05:01:31;28.90;;;15.10;;
5460;SDS011;2753;49.196;8.286;2023-06-22T05:03:57;29.00;;;15.83;;
5460;SDS011;2753;49.196;8.286;2023-06-22T05:06:26;22.13;;;14.20;;
5460;SDS011;2753;49.196;8.286;2023-06-22T05:08:55;20.80;;;13.60;;
5460;SDS011;2753;49.196;8.286;2023-06-22T05:11:25;16.10;;;14.07;;
5460;SDS011;2753;49.196;8.286;2023-06-22T05:13:54;19.17;;;14.13;;
5460;SDS011;2753;49.196;8.286;2023-06-22T05:16:21;17.90;;;13.67;;
5460;SDS011;2753;49.196;8.286;2023-06-22T05:18:51;19.80;;;13.60;;
5460;SDS011;2753;49.196;8.286;2023-06-22T05:21:20;15.63;;;13.27;;
5460;SDS011;2753;49.196;8.286;2023-06-22T05:23:49;16.60;;;11.63;;
5460;SDS011;2753;49.196;8.286;2023-06-22T05:26:15;16.30;;;11.60;;
5460;SDS011;2753;49.196;8.286;2023-06-22T05:28:41;15.57;;;11.60;;
5460;SDS011;2753;49.196;8.286;2023-06-22T05:31:14;13.40;;;9.97;;
5460;SDS011;2753;49.196;8.286;2023-06-22T05:33:42;12.97;;;11.50;;
5460;SDS011;2753;49.196;8.286;2023-06-22T05:36:09;14.60;;;11.03;;
5460;SDS011;2753;49.196;8.286;2023-06-22T05:38:35;12.43;;;9.80;;
5460;SDS011;2753;49.196;8.286;2023-06-22T05:41:01;14.93;;;9.37;;
5460;SDS011;2753;49.196;8.286;2023-06-22T05:43:27;9.67;;;8.73;;
5460;SDS011;2753;49.196;8.286;2023-06-22T05:45:52;13.90;;;8.70;;
5460;SDS011;2753;49.196;8.286;2023-06-22T05:48:18;12.27;;;7.93;;
5460;SDS011;2753;49.196;8.286;2023-06-22T05:50:44;14.33;;;9.30;;
5460;SDS011;2753;49.196;8.286;2023-06-22T05:53:09;12.73;;;8.70;;
5460;SDS011;2753;49.196;8.286;2023-06-22T05:55:35;12.63;;;9.07;;
5460;SDS011;2753;49.196;8.286;2023-06-22T05:58:01;10.03;;;7.60;;
5460;SDS011;2753;49.196;8.286;2023-06-22T06:00:28;12.73;;;8.33;;
5460;SDS011;2753;49.196;8.286;2023-06-22T06:02:54;10.13;;;8.37;;
5460;SDS011;2753;49.196;8.286;2023-06-22T06:05:20;11.53;;;7.80;;
5460;SDS011;2753;49.196;8.286;2023-06-22T06:07:46;9.07;;;8.17;;
5460;SDS011;2753;49.196;8.286;2023-06-22T06:10:12;10.83;;;8.10;;
5460;SDS011;2753;49.196;8.286;2023-06-22T06:12:38;8.57;;;7.50;;
5460;SDS011;2753;49.196;8.286;2023-06-22T06:15:04;14.07;;;8.93;;
5460;SDS011;2753;49.196;8.286;2023-06-22T06:17:30;8.23;;;7.43;;
5460;SDS011;2753;49.196;8.286;2023-06-22T06:19:55;12.77;;;7.87;;
5460;SDS011;2753;49.196;8.286;2023-06-22T06:22:21;13.67;;;9.17;;
5460;SDS011;2753;49.196;8.286;2023-06-22T06:24:48;13.03;;;7.43;;
5460;SDS011;2753;49.196;8.286;2023-06-22T06:27:15;11.63;;;8.20;;
5460;SDS011;2753;49.196;8.286;2023-06-22T06:29:43;14.23;;;7.80;;
5460;SDS011;2753;49.196;8.286;2023-06-22T06:32:10;9.83;;;7.73;;
5460;SDS011;2753;49.196;8.286;2023-06-22T06:34:36;8.53;;;7.27;;
5460;SDS011;2753;49.196;8.286;2023-06-22T06:37:02;10.70;;;7.73;;
5460;SDS011;2753;49.196;8.286;2023-06-22T06:39:28;15.73;;;7.67;;
5460;SDS011;2753;49.196;8.286;2023-06-22T06:41:53;24.73;;;7.93;;
5460;SDS011;2753;49.196;8.286;2023-06-22T06:44:19;12.03;;;7.57;;
5460;SDS011;2753;49.196;8.286;2023-06-22T06:46:44;8.70;;;7.80;;
5460;SDS011;2753;49.196;8.286;2023-06-22T06:49:10;9.03;;;7.50;;
5460;SDS011;2753;49.196;8.286;2023-06-22T06:51:36;11.33;;;7.83;;
5460;SDS011;2753;49.196;8.286;2023-06-22T06:54:02;10.37;;;7.60;;
5460;SDS011;2753;49.196;8.286;2023-06-22T06:56:28;12.07;;;8.00;;
5460;SDS011;2753;49.196;8.286;2023-06-22T06:58:55;7.40;;;6.73;;
5460;SDS011;2753;49.196;8.286;2023-06-22T08:49:35;8.80;;;6.90;;
5460;SDS011;2753;49.196;8.286;2023-06-22T08:52:01;12.70;;;7.30;;
5460;SDS011;2753;49.196;8.286;2023-06-22T08:54:27;10.00;;;6.90;;
5460;SDS011;2753;49.196;8.286;2023-06-22T08:56:52;8.80;;;6.23;;
5460;SDS011;2753;49.196;8.286;2023-06-22T08:59:18;11.70;;;6.77;;
5460;SDS011;2753;49.196;8.286;2023-06-22T09:01:43;9.43;;;5.90;;
5460;SDS011;2753;49.196;8.286;2023-06-22T09:04:10;7.60;;;5.97;;
5460;SDS011;2753;49.196;8.286;2023-06-22T09:06:36;10.23;;;7.40;;
5460;SDS011;2753;49.196;8.286;2023-06-22T09:09:06;11.43;;;7.40;;
5460;SDS011;2753;49.196;8.286;2023-06-22T09:11:32;12.57;;;6.80;;
5460;SDS011;2753;49.196;8.286;2023-06-22T09:13:57;8.33;;;5.87;;
5460;SDS011;2753;49.196;8.286;2023-06-22T09:16:23;9.30;;;6.83;;
5460;SDS011;2753;49.196;8.286;2023-06-22T09:18:49;18.33;;;6.80;;
5460;SDS011;2753;49.196;8.286;2023-06-22T09:21:14;8.90;;;5.60;;
5460;SDS011;2753;49.196;8.286;2023-06-22T09:23:40;10.87;;;6.80;;
5460;SDS011;2753;49.196;8.286;2023-06-22T09:26:05;12.87;;;7.70;;
5460;SDS011;2753;49.196;8.286;2023-06-22T09:28:31;11.37;;;7.00;;
5460;SDS011;2753;49.196;8.286;2023-06-22T09:30:58;10.60;;;7.00;;
5460;SDS011;2753;49.196;8.286;2023-06-22T09:33:25;9.63;;;6.63;;
5460;SDS011;2753;49.196;8.286;2023-06-22T09:35:51;10.93;;;7.47;;
5460;SDS011;2753;49.196;8.286;2023-06-22T09:38:17;8.33;;;6.43;;
5460;SDS011;2753;49.196;8.286;2023-06-22T09:40:43;12.20;;;7.10;;
5460;SDS011;2753;49.196;8.286;2023-06-22T09:43:08;9.90;;;7.43;;
5460;SDS011;2753;49.196;8.286;2023-06-22T09:45:34;10.10;;;7.07;;
5460;SDS011;2753;49.196;8.286;2023-06-22T09:48:01;13.63;;;7.00;;
5460;SDS011;2753;49.196;8.286;2023-06-22T09:50:26;10.93;;;7.23;;
5460;SDS011;2753;49.196;8.286;2023-06-22T09:52:52;8.30;;;6.90;;
5460;SDS011;2753;49.196;8.286;2023-06-22T09:55:22;10.40;;;6.10;;
5460;SDS011;2753;49.196;8.286;2023-06-22T09:57:48;11.70;;;7.70;;
5460;SDS011;2753;49.196;8.286;2023-06-22T10:00:15;12.73;;;6.60;;
5460;SDS011;2753;49.196;8.286;2023-06-22T10:02:42;6.87;;;5.87;;
5460;SDS011;2753;49.196;8.286;2023-06-22T10:08:02;8.90;;;5.80;;
5460;SDS011;2753;49.196;8.286;2023-06-22T10:10:28;14.50;;;7.27;;
5460;SDS011;2753;49.196;8.286;2023-06-22T10:12:55;10.20;;;6.03;;
5460;SDS011;2753;49.196;8.286;2023-06-22T10:15:22;11.10;;;6.93;;
5460;SDS011;2753;49.196;8.286;2023-06-22T10:17:48;21.33;;;7.07;;
5460;SDS011;2753;49.196;8.286;2023-06-22T10:20:13;14.43;;;6.30;;
5460;SDS011;2753;49.196;8.286;2023-06-22T10:22:40;8.70;;;6.17;;
5460;SDS011;2753;49.196;8.286;2023-06-22T10:25:08;10.90;;;6.80;;
5460;SDS011;2753;49.196;8.286;2023-06-22T10:27:34;15.07;;;6.43;;
5460;SDS011;2753;49.196;8.286;2023-06-22T10:30:00;13.77;;;7.37;;
5460;SDS011;2753;49.196;8.286;2023-06-22T10:32:26;10.37;;;6.10;;
5460;SDS011;2753;49.196;8.286;2023-06-22T10:34:53;11.87;;;6.90;;
5460;SDS011;2753;49.196;8.286;2023-06-22T10:37:19;11.63;;;6.53;;
5460;SDS011;2753;49.196;8.286;2023-06-22T10:39:45;11.80;;;6.63;;
5460;SDS011;2753;49.196;8.286;2023-06-22T10:42:11;11.83;;;6.53;;
5460;SDS011;2753;49.196;8.286;2023-06-22T10:44:37;13.03;;;6.97;;
5460;SDS011;2753;49.196;8.286;2023-06-22T10:47:04;12.93;;;5.80;;
5460;SDS011;2753;49.196;8.286;2023-06-22T10:49:30;10.00;;;6.13;;
5460;SDS011;2753;49.196;8.286;2023-06-22T10:59:42;9.03;;;5.53;;
5460;SDS011;2753;49.196;8.286;2023-06-22T11:02:09;12.37;;;6.07;;
5460;SDS011;2753;49.196;8.286;2023-06-22T11:04:34;10.47;;;6.03;;
5460;SDS011;2753;49.196;8.286;2023-06-22T11:07:00;17.43;;;6.97;;
5460;SDS011;2753;49.196;8.286;2023-06-22T11:09:26;8.77;;;6.60;;
5460;SDS011;2753;49.196;8.286;2023-06-22T11:11:52;16.57;;;6.27;;
5460;SDS011;2753;49.196;8.286;2023-06-22T11:14:20;8.90;;;6.33;;
5460;SDS011;2753;49.196;8.286;2023-06-22T11:16:46;15.80;;;6.50;;
5460;SDS011;2753;49.196;8.286;2023-06-22T11:19:12;9.17;;;6.57;;
5460;SDS011;2753;49.196;8.286;2023-06-22T11:50:45;10.50;;;6.20;;
5460;SDS011;2753;49.196;8.286;2023-06-22T11:53:28;16.73;;;7.00;;
5460;SDS011;2753;49.196;8.286;2023-06-22T12:03:16;17.53;;;7.97;;
5460;SDS011;2753;49.196;8.286;2023-06-22T12:05:43;15.30;;;5.70;;
5460;SDS011;2753;49.196;8.286;2023-06-22T12:08:25;13.73;;;6.23;;
5460;SDS011;2753;49.196;8.286;2023-06-22T12:10:54;10.80;;;6.77;;
5460;SDS011;2753;49.196;8.286;2023-06-22T12:13:20;10.73;;;7.10;;
5460;SDS011;2753;49.196;8.286;2023-06-22T12:15:49;10.10;;;6.80;;
5460;SDS011;2753;49.196;8.286;2023-06-22T12:48:09;9.27;;;6.23;;
5460;SDS011;2753;49.196;8.286;2023-06-22T12:50:35;11.93;;;6.90;;
5460;SDS011;2753;49.196;8.286;2023-06-22T12:53:00;19.20;;;8.40;;
5460;SDS011;2753;49.196;8.286;2023-06-22T12:55:28;13.27;;;7.23;;
5460;SDS011;2753;49.196;8.286;2023-06-22T12:57:53;17.47;;;7.00;;
5460;SDS011;2753;49.196;8.286;2023-06-22T13:00:19;15.30;;;7.67;;
5460;SDS011;2753;49.196;8.286;2023-06-22T13:02:45;10.53;;;6.20;;
5460;SDS011;2753;49.196;8.286;2023-06-22T13:05:11;16.20;;;6.43;;
5460;SDS011;2753;49.196;8.286;2023-06-22T13:07:36;12.43;;;7.07;;
5460;SDS011;2753;49.196;8.286;2023-06-22T13:10:02;26.13;;;7.53;;
5460;SDS011;2753;49.196;8.286;2023-06-22T13:12:28;10.27;;;7.20;;
5460;SDS011;2753;49.196;8.286;2023-06-22T13:14:54;10.97;;;6.63;;
5460;SDS011;2753;49.196;8.286;2023-06-22T13:17:20;14.30;;;6.60;;
5460;SDS011;2753;49.196;8.286;2023-06-22T13:19:46;11.50;;;7.00;;
5460;SDS011;2753;49.196;8.286;2023-06-22T13:25:10;13.07;;;7.27;;
5460;SDS011;2753;49.196;8.286;2023-06-22T13:27:37;12.93;;;7.03;;
5460;SDS011;2753;49.196;8.286;2023-06-22T13:30:06;14.60;;;7.70;;
5460;SDS011;2753;49.196;8.286;2023-06-22T13:32:32;18.27;;;7.10;;
5460;SDS011;2753;49.196;8.286;2023-06-22T13:34:58;20.77;;;7.80;;
5460;SDS011;2753;49.196;8.286;2023-06-22T13:37:23;11.30;;;7.40;;
5460;SDS011;2753;49.196;8.286;2023-06-22T13:39:50;19.83;;;7.30;;
5460;SDS011;2753;49.196;8.286;2023-06-22T13:42:16;17.00;;;6.63;;
5460;SDS011;2753;49.196;8.286;2023-06-22T13:44:41;12.80;;;6.67;;
5460;SDS011;2753;49.196;8.286;2023-06-22T13:47:07;18.87;;;6.97;;
5460;SDS011;2753;49.196;8.286;2023-06-22T13:49:33;15.30;;;7.47;;
5460;SDS011;2753;49.196;8.286;2023-06-22T13:51:59;16.90;;;6.40;;
5460;SDS011;2753;49.196;8.286;2023-06-22T13:54:25;17.43;;;6.30;;
5460;SDS011;2753;49.196;8.286;2023-06-22T13:56:50;12.73;;;6.90;;
5460;SDS011;2753;49.196;8.286;2023-06-22T13:59:16;17.00;;;6.20;;
5460;SDS011;2753;49.196;8.286;2023-06-22T14:01:42;17.73;;;6.70;;
5460;SDS011;2753;49.196;8.286;2023-06-22T14:04:08;11.87;;;6.50;;
5460;SDS011;2753;49.196;8.286;2023-06-22T14:06:35;17.93;;;6.57;;
5460;SDS011;2753;49.196;8.286;2023-06-22T14:09:00;15.97;;;7.27;;
5460;SDS011;2753;49.196;8.286;2023-06-22T14:11:26;18.80;;;7.10;;
5460;SDS011;2753;49.196;8.286;2023-06-22T14:13:52;15.80;;;6.30;;
5460;SDS011;2753;49.196;8.286;2023-06-22T14:16:17;20.00;;;7.90;;
5460;SDS011;2753;49.196;8.286;2023-06-22T14:18:44;13.67;;;6.90;;
5460;SDS011;2753;49.196;8.286;2023-06-22T14:21:10;16.67;;;6.97;;
5460;SDS011;2753;49.196;8.286;2023-06-22T14:23:35;21.30;;;6.43;;
5460;SDS011;2753;49.196;8.286;2023-06-22T14:26:02;17.37;;;7.00;;
5460;SDS011;2753;49.196;8.286;2023-06-22T14:28:28;15.93;;;7.27;;
5460;SDS011;2753;49.196;8.286;2023-06-22T14:30:54;19.30;;;7.30;;
5460;SDS011;2753;49.196;8.286;2023-06-22T14:36:55;15.73;;;6.83;;
5460;SDS011;2753;49.196;8.286;2023-06-22T14:39:28;33.00;;;8.83;;
5460;SDS011;2753;49.196;8.286;2023-06-22T14:41:57;19.50;;;7.63;;
5460;SDS011;2753;49.196;8.286;2023-06-22T14:47:53;18.20;;;8.00;;
5460;SDS011;2753;49.196;8.286;2023-06-22T14:50:21;18.23;;;8.70;;
5460;SDS011;2753;49.196;8.286;2023-06-22T14:52:50;11.87;;;7.70;;
5460;SDS011;2753;49.196;8.286;2023-06-22T14:55:19;14.13;;;7.80;;
5460;SDS011;2753;49.196;8.286;2023-06-22T14:57:45;17.90;;;8.40;;
5460;SDS011;2753;49.196;8.286;2023-06-22T15:00:11;17.17;;;8.50;;
5460;SDS011;2753;49.196;8.286;2023-06-22T15:02:37;17.57;;;8.20;;
5460;SDS011;2753;49.196;8.286;2023-06-22T15:05:03;17.47;;;8.47;;
5460;SDS011;2753;49.196;8.286;2023-06-22T15:07:30;24.03;;;7.60;;
5460;SDS011;2753;49.196;8.286;2023-06-22T15:09:57;22.27;;;6.87;;
5460;SDS011;2753;49.196;8.286;2023-06-22T15:12:28;14.53;;;6.40;;
5460;SDS011;2753;49.196;8.286;2023-06-22T15:15:50;24.83;;;5.97;;
5460;SDS011;2753;49.196;8.286;2023-06-22T15:18:16;11.50;;;6.87;;
5460;SDS011;2753;49.196;8.286;2023-06-22T15:20:43;11.03;;;5.90;;
5460;SDS011;2753;49.196;8.286;2023-06-22T15:23:15;16.40;;;6.60;;
5460;SDS011;2753;49.196;8.286;2023-06-22T15:25:50;10.57;;;5.93;;
5460;SDS011;2753;49.196;8.286;2023-06-22T15:28:17;17.40;;;7.10;;
5460;SDS011;2753;49.196;8.286;2023-06-22T15:30:42;17.23;;;6.87;;
5460;SDS011;2753;49.196;8.286;2023-06-22T15:36:20;12.80;;;5.60;;
5460;SDS011;2753;49.196;8.286;2023-06-22T15:38:49;10.83;;;6.20;;
5460;SDS011;2753;49.196;8.286;2023-06-22T15:41:14;14.63;;;5.50;;
5460;SDS011;2753;49.196;8.286;2023-06-22T15:43:41;12.37;;;5.23;;
5460;SDS011;2753;49.196;8.286;2023-06-22T15:46:06;16.67;;;5.70;;
5460;SDS011;2753;49.196;8.286;2023-06-22T15:48:33;15.90;;;6.40;;
5460;SDS011;2753;49.196;8.286;2023-06-22T15:54:11;14.77;;;5.70;;
5460;SDS011;2753;49.196;8.286;2023-06-22T15:56:54;16.37;;;5.70;;
5460;SDS011;2753;49.196;8.286;2023-06-22T15:59:35;13.60;;;5.50;;
5460;SDS011;2753;49.196;8.286;2023-06-22T16:02:14;11.57;;;6.37;;
5460;SDS011;2753;49.196;8.286;2023-06-22T16:04:40;13.00;;;5.60;;
5460;SDS011;2753;49.196;8.286;2023-06-22T16:07:07;11.13;;;6.60;;
5460;SDS011;2753;49.196;8.286;2023-06-22T16:09:32;18.27;;;7.03;;
5460;SDS011;2753;49.196;8.286;2023-06-22T16:11:58;26.47;;;6.73;;
5460;SDS011;2753;49.196;8.286;2023-06-22T16:14:24;16.57;;;7.07;;
5460;SDS011;2753;49.196;8.286;2023-06-22T16:16:50;12.43;;;6.07;;
5460;SDS011;2753;49.196;8.286;2023-06-22T16:19:16;21.97;;;8.03;;
5460;SDS011;2753;49.196;8.286;2023-06-22T16:21:44;11.60;;;7.70;;
5460;SDS011;2753;49.196;8.286;2023-06-22T16:24:10;16.50;;;6.50;;
5460;SDS011;2753;49.196;8.286;2023-06-22T16:26:42;13.70;;;5.97;;
5460;SDS011;2753;49.196;8.286;2023-06-22T16:29:09;20.73;;;6.37;;
5460;SDS011;2753;49.196;8.286;2023-06-22T16:31:35;13.87;;;6.37;;
5460;SDS011;2753;49.196;8.286;2023-06-22T16:34:01;10.23;;;5.90;;
5460;SDS011;2753;49.196;8.286;2023-06-22T16:36:27;15.33;;;5.70;;
5460;SDS011;2753;49.196;8.286;2023-06-22T16:38:53;13.93;;;6.13;;
5460;SDS011;2753;49.196;8.286;2023-06-22T16:41:19;18.53;;;5.73;;
5460;SDS011;2753;49.196;8.286;2023-06-22T16:43:49;12.40;;;5.40;;
5460;SDS011;2753;49.196;8.286;2023-06-22T16:46:16;10.87;;;5.50;;
5460;SDS011;2753;49.196;8.286;2023-06-22T16:48:49;21.73;;;7.20;;
5460;SDS011;2753;49.196;8.286;2023-06-22T16:51:16;24.17;;;6.23;;
5460;SDS011;2753;49.196;8.286;2023-06-22T16:53:43;10.90;;;5.00;;
5460;SDS011;2753;49.196;8.286;2023-06-22T16:56:11;14.77;;;5.87;;
5460;SDS011;2753;49.196;8.286;2023-06-22T16:58:47;19.00;;;5.63;;
5460;SDS011;2753;49.196;8.286;2023-06-22T17:01:15;12.10;;;4.33;;
5460;SDS011;2753;49.196;8.286;2023-06-22T17:03:47;23.67;;;4.97;;
5460;SDS011;2753;49.196;8.286;2023-06-22T17:06:18;9.23;;;3.83;;
5460;SDS011;2753;49.196;8.286;2023-06-22T17:08:43;10.73;;;4.57;;
5460;SDS011;2753;49.196;8.286;2023-06-22T17:11:10;12.33;;;3.80;;
5460;SDS011;2753;49.196;8.286;2023-06-22T17:17:00;8.63;;;3.30;;
5460;SDS011;2753;49.196;8.286;2023-06-22T17:19:27;10.50;;;3.73;;
5460;SDS011;2753;49.196;8.286;2023-06-22T17:21:53;10.63;;;3.90;;
5460;SDS011;2753;49.196;8.286;2023-06-22T17:24:19;15.10;;;4.53;;
5460;SDS011;2753;49.196;8.286;2023-06-22T17:26:48;13.17;;;3.60;;
5460;SDS011;2753;49.196;8.286;2023-06-22T17:29:17;17.20;;;3.27;;
5460;SDS011;2753;49.196;8.286;2023-06-22T17:31:43;12.43;;;4.03;;
5460;SDS011;2753;49.196;8.286;2023-06-22T17:34:10;6.93;;;2.87;;
5460;SDS011;2753;49.196;8.286;2023-06-22T17:36:40;6.63;;;3.77;;
5460;SDS011;2753;49.196;8.286;2023-06-22T17:39:09;11.23;;;3.23;;
5460;SDS011;2753;49.196;8.286;2023-06-22T17:41:39;11.10;;;3.87;;
5460;SDS011;2753;49.196;8.286;2023-06-22T17:44:08;12.73;;;3.43;;
5460;SDS011;2753;49.196;8.286;2023-06-22T17:46:34;16.70;;;3.50;;
5460;SDS011;2753;49.196;8.286;2023-06-22T17:49:01;19.00;;;3.00;;
5460;SDS011;2753;49.196;8.286;2023-06-22T17:51:36;19.90;;;3.60;;
5460;SDS011;2753;49.196;8.286;2023-06-22T17:54:05;5.63;;;3.00;;
5460;SDS011;2753;49.196;8.286;2023-06-22T17:56:31;13.50;;;3.60;;
5460;SDS011;2753;49.196;8.286;2023-06-22T17:58:57;18.30;;;4.00;;
5460;SDS011;2753;49.196;8.286;2023-06-22T18:01:33;14.20;;;3.80;;
5460;SDS011;2753;49.196;8.286;2023-06-22T18:06:41;17.20;;;4.07;;
5460;SDS011;2753;49.196;8.286;2023-06-22T18:09:08;8.73;;;3.33;;
5460;SDS011;2753;49.196;8.286;2023-06-22T18:11:36;9.00;;;3.03;;
5460;SDS011;2753;49.196;8.286;2023-06-22T18:14:05;9.90;;;3.33;;
5460;SDS011;2753;49.196;8.286;2023-06-22T18:16:32;11.20;;;3.00;;
5460;SDS011;2753;49.196;8.286;2023-06-22T18:19:00;8.20;;;3.30;;
5460;SDS011;2753;49.196;8.286;2023-06-22T18:21:28;7.30;;;3.50;;
5460;SDS011;2753;49.196;8.286;2023-06-22T18:23:54;6.87;;;2.90;;
5460;SDS011;2753;49.196;8.286;2023-06-22T18:26:22;8.77;;;3.20;;
5460;SDS011;2753;49.196;8.286;2023-06-22T18:28:51;9.03;;;3.17;;
5460;SDS011;2753;49.196;8.286;2023-06-22T18:31:18;6.50;;;3.03;;
5460;SDS011;2753;49.196;8.286;2023-06-22T18:33:46;5.67;;;3.07;;
5460;SDS011;2753;49.196;8.286;2023-06-22T18:36:28;4.30;;;3.30;;
5460;SDS011;2753;49.196;8.286;2023-06-22T18:38:57;6.10;;;2.93;;
5460;SDS011;2753;49.196;8.286;2023-06-22T18:41:35;12.13;;;3.87;;